createdAt,value
2022-11-26T00:04:55.829Z,5.00
2022-11-26T00:09:59.392Z,4.53
2022-11-26T00:15:31.181Z,4.05
2022-11-26T00:20:33.490Z,4.43
2022-11-26T00:25:44.762Z,2.67
2022-11-26T00:30:46.981Z,2.67
2022-11-26T00:35:52.619Z,2.88
2022-11-26T00:40:55.218Z,3.08
2022-11-26T00:45:57.500Z,2.70
2022-11-26T00:50:59.728Z,2.72
2022-11-26T00:56:01.941Z,3.10
2022-11-26T01:01:04.230Z,2.95
2022-11-26T01:06:06.648Z,2.55
2022-11-26T01:11:14.570Z,2.33
2022-11-26T01:16:24.451Z,2.70
2022-11-26T01:21:28.785Z,2.28
2022-11-26T01:26:43.014Z,2.80
2022-11-26T01:31:46.084Z,2.95
2022-11-26T01:36:48.390Z,2.72
2022-11-26T01:42:16.607Z,3.42
2022-11-26T01:47:30.258Z,2.67
2022-11-26T01:52:32.911Z,2.65
2022-11-26T01:57:38.649Z,2.00
2022-11-26T02:02:41.797Z,2.65
2022-11-26T02:07:45.158Z,2.50
2022-11-26T02:12:47.964Z,2.30
2022-11-26T02:17:57.991Z,2.30
2022-11-26T02:23:22.221Z,2.13
2022-11-26T02:28:37.559Z,1.90
2022-11-26T02:33:54.993Z,2.60
2022-11-26T02:38:57.238Z,2.08
2022-11-26T02:43:59.518Z,2.33
2022-11-26T02:49:03.086Z,2.17
2022-11-26T02:54:07.068Z,2.05
2022-11-26T02:59:09.427Z,1.80
2022-11-26T03:04:19.593Z,1.65
2022-11-26T03:09:23.296Z,1.67
2022-11-26T03:14:25.514Z,2.10
2022-11-26T03:19:27.722Z,1.60
2022-11-26T03:24:30.769Z,1.88
2022-11-26T03:29:33.678Z,2.08
2022-11-26T03:34:36.121Z,2.58
2022-11-26T03:39:38.613Z,2.10
2022-11-26T03:44:40.917Z,1.67
2022-11-26T03:49:43.262Z,1.80
2022-11-26T03:54:45.425Z,1.83
2022-11-26T03:59:47.618Z,1.55
2022-11-26T04:04:49.933Z,1.65
2022-11-26T04:09:52.102Z,1.95
2022-11-26T04:14:54.302Z,1.88
2022-11-26T04:19:56.460Z,1.73
2022-11-26T04:24:58.663Z,1.80
2022-11-26T04:30:01.034Z,1.80
2022-11-26T04:35:03.505Z,1.52
2022-11-26T04:40:06.732Z,1.70
2022-11-26T04:45:10.315Z,1.58
2022-11-26T04:50:12.933Z,1.40
2022-11-26T04:55:16.633Z,1.48
2022-11-26T05:00:19.356Z,1.10
2022-11-26T05:05:21.545Z,1.40
2022-11-26T05:10:23.741Z,1.60
2022-11-26T05:15:26.006Z,1.15
2022-11-26T05:20:28.222Z,1.70
2022-11-26T05:25:30.497Z,1.77
2022-11-26T05:30:33.071Z,1.33
2022-11-26T05:35:37.454Z,1.70
2022-11-26T05:40:39.634Z,1.13
2022-11-26T05:45:41.891Z,1.05
2022-11-26T05:50:44.160Z,1.85
2022-11-26T05:55:46.368Z,1.30
2022-11-26T06:00:48.646Z,1.40
2022-11-26T06:05:51.168Z,1.35
2022-11-26T06:10:53.821Z,1.63
2022-11-26T06:15:56.050Z,1.50
2022-11-26T06:21:02.676Z,1.27
2022-11-26T06:26:10.263Z,1.20
2022-11-26T06:31:12.578Z,1.40
2022-11-26T06:36:14.909Z,1.80
2022-11-26T06:41:17.183Z,1.98
2022-11-26T06:46:19.499Z,1.45
2022-11-26T06:51:22.090Z,1.67
2022-11-26T06:56:24.556Z,1.35
2022-11-26T07:01:27.278Z,1.33
2022-11-26T07:06:31.925Z,1.48
2022-11-26T07:11:35.016Z,1.40
2022-11-26T07:16:37.318Z,1.30
2022-11-26T07:21:39.500Z,1.83
2022-11-26T07:26:42.144Z,1.92
2022-11-26T07:31:44.517Z,1.52
2022-11-26T07:36:46.708Z,1.40
2022-11-26T07:41:48.916Z,4.82
2022-11-26T07:46:51.221Z,4.35
2022-11-26T07:51:53.456Z,3.67
2022-11-26T07:56:56.841Z,4.57
2022-11-26T08:01:59.143Z,4.88
2022-11-26T08:07:01.894Z,3.35
2022-11-26T08:12:04.336Z,2.80
2022-11-26T08:17:06.559Z,1.90
2022-11-26T08:22:08.798Z,2.25
2022-11-26T08:27:11.148Z,1.67
2022-11-26T08:32:13.523Z,2.08
2022-11-26T08:37:15.759Z,2.00
2022-11-26T08:42:18.549Z,2.30
2022-11-26T08:47:21.156Z,2.28
2022-11-26T08:52:23.631Z,2.38
2022-11-26T08:57:25.823Z,2.08
2022-11-26T09:02:28.159Z,1.83
2022-11-26T09:07:30.351Z,1.67
2022-11-26T09:12:32.537Z,2.70
2022-11-26T09:17:34.892Z,1.83
2022-11-26T09:22:37.219Z,2.00
2022-11-26T09:27:39.408Z,1.60
2022-11-26T09:32:41.665Z,2.03
2022-11-26T09:37:48.672Z,1.88
2022-11-26T09:43:02.806Z,2.15
2022-11-26T09:48:09.463Z,2.15
2022-11-26T09:53:32.616Z,2.00
2022-11-26T09:58:45.496Z,2.88
2022-11-26T10:03:48.045Z,1.98
2022-11-26T10:09:27.001Z,3.13
2022-11-26T10:14:50.262Z,6.55
2022-11-26T10:20:29.606Z,2.30
2022-11-26T10:25:39.550Z,2.80
2022-11-26T10:30:42.148Z,1.92
2022-11-26T10:35:46.197Z,1.75
2022-11-26T10:40:48.357Z,2.72
2022-11-26T10:45:56.081Z,2.40
2022-11-26T10:51:04.204Z,2.10
2022-11-26T10:56:07.683Z,3.08
2022-11-26T11:01:10.339Z,2.20
2022-11-26T11:06:27.955Z,2.03
2022-11-26T11:11:31.463Z,2.33
2022-11-26T11:16:43.401Z,1.90
2022-11-26T11:21:48.297Z,2.38
2022-11-26T11:26:53.593Z,2.83
2022-11-26T11:31:57.790Z,3.90
2022-11-26T11:37:14.740Z,5.78
2022-11-26T11:42:28.327Z,4.30
2022-11-26T11:47:42.591Z,3.13
2022-11-26T11:52:57.384Z,3.78
2022-11-26T11:58:05.577Z,4.07
2022-11-26T12:03:24.231Z,2.45
2022-11-26T12:08:42.776Z,2.67
2022-11-26T12:13:57.244Z,4.40
2022-11-26T12:19:04.545Z,2.58
2022-11-26T12:24:28.716Z,3.08
2022-11-26T12:29:47.238Z,2.47
2022-11-26T12:34:52.833Z,2.92
2022-11-26T12:40:07.136Z,2.50
2022-11-26T12:45:35.027Z,1.90
2022-11-26T12:50:48.288Z,2.60
2022-11-26T12:56:19.439Z,2.33
2022-11-26T13:01:24.298Z,2.75
2022-11-26T13:06:54.449Z,2.13
2022-11-26T13:12:12.152Z,1.88
2022-11-26T13:17:18.151Z,2.15
2022-11-26T13:28:06.400Z,1.80
2022-11-26T13:33:33.252Z,2.25
2022-11-26T13:39:03.484Z,4.07
2022-11-26T13:44:22.640Z,4.50
2022-11-26T13:49:44.150Z,3.08
2022-11-26T13:55:18.765Z,3.80
2022-11-26T14:00:30.799Z,4.10
2022-11-26T14:05:51.221Z,1.90
2022-11-26T14:10:53.397Z,2.28
2022-11-26T14:16:01.750Z,2.65
2022-11-26T14:21:06.664Z,2.50
2022-11-26T14:26:11.775Z,2.13
2022-11-26T14:31:26.397Z,3.03
2022-11-26T14:36:30.284Z,2.33
2022-11-26T14:41:41.654Z,2.58
2022-11-26T14:46:47.112Z,3.17
2022-11-26T14:51:50.311Z,2.58
2022-11-26T14:56:52.480Z,2.40
2022-11-26T15:01:54.742Z,3.25
2022-11-26T15:06:58.589Z,3.55
2022-11-26T15:12:12.159Z,3.25
2022-11-26T15:17:17.461Z,3.25
2022-11-26T15:22:19.774Z,2.53
2022-11-26T15:27:28.872Z,4.55
2022-11-26T15:32:33.576Z,3.55
2022-11-26T15:37:35.805Z,4.10
2022-11-26T15:42:39.495Z,3.03
2022-11-26T15:47:48.054Z,2.92
2022-11-26T15:52:50.247Z,3.22
2022-11-26T15:57:52.940Z,3.50
2022-11-26T16:02:55.176Z,2.28
2022-11-26T16:08:19.787Z,2.40
2022-11-26T16:13:26.317Z,2.30
2022-11-26T16:18:39.302Z,2.50
2022-11-26T16:23:42.251Z,2.20
2022-11-26T16:28:45.846Z,2.15
2022-11-26T16:33:48.117Z,2.55
2022-11-26T16:38:51.288Z,2.45
2022-11-26T16:43:53.606Z,1.90
2022-11-26T16:48:55.977Z,2.40
2022-11-26T16:53:58.238Z,2.47
2022-11-26T16:59:00.563Z,2.28
2022-11-26T17:04:02.871Z,2.58
2022-11-26T17:09:05.097Z,2.45
2022-11-26T17:14:10.712Z,2.30
2022-11-26T17:19:15.202Z,2.70
2022-11-26T17:24:20.693Z,2.65
2022-11-26T17:29:25.256Z,2.33
2022-11-26T17:34:27.513Z,2.20
2022-11-26T17:39:29.762Z,1.73
2022-11-26T17:44:32.024Z,1.80
2022-11-26T17:49:34.218Z,1.80
2022-11-26T17:54:36.347Z,1.63
2022-11-26T17:59:38.866Z,2.08
2022-11-26T18:04:41.346Z,1.80
2022-11-26T18:09:44.009Z,1.50
2022-11-26T18:14:46.216Z,1.60
2022-11-26T18:19:48.874Z,2.22
2022-11-26T18:24:56.942Z,2.08
2022-11-26T18:30:00.377Z,3.53
2022-11-26T18:35:02.969Z,3.17
2022-11-26T18:40:07.770Z,2.80
2022-11-26T18:45:14.462Z,2.80
2022-11-26T18:50:16.692Z,2.55
2022-11-26T18:55:18.918Z,1.90
2022-11-26T19:00:21.415Z,2.30
2022-11-26T19:05:23.597Z,1.80
2022-11-26T19:10:26.845Z,1.90
2022-11-26T19:15:29.592Z,2.00
2022-11-26T19:20:31.725Z,1.35
2022-11-26T19:25:34.036Z,2.17
2022-11-26T19:30:36.335Z,1.98
2022-11-26T19:35:39.694Z,2.30
2022-11-26T19:40:41.843Z,2.10
2022-11-26T19:45:44.091Z,2.70
2022-11-26T19:50:55.212Z,3.25
2022-11-26T19:56:00.122Z,1.42
2022-11-26T20:01:05.757Z,1.92
2022-11-26T20:06:21.759Z,1.77
2022-11-26T20:11:24.351Z,2.80
2022-11-26T20:16:30.932Z,1.50
2022-11-26T20:21:34.002Z,1.90
2022-11-26T20:26:38.693Z,1.80
2022-11-26T20:31:45.929Z,1.35
2022-11-26T20:36:48.535Z,1.80
2022-11-26T20:41:51.173Z,1.50
2022-11-26T20:46:53.416Z,1.00
2022-11-26T20:51:55.610Z,1.98
2022-11-26T20:56:57.957Z,1.30
2022-11-26T21:02:00.110Z,1.15
2022-11-26T21:07:02.351Z,1.00
2022-11-26T21:12:04.733Z,0.90
2022-11-26T21:17:07.156Z,0.85
2022-11-26T21:22:09.503Z,0.80
2022-11-26T21:27:11.657Z,0.63
2022-11-26T21:32:13.839Z,0.55
2022-11-26T21:37:16.079Z,0.60
2022-11-26T21:42:18.284Z,1.40
2022-11-26T21:47:20.467Z,1.27
2022-11-26T21:52:22.650Z,1.20
2022-11-26T21:57:24.790Z,1.08
2022-11-26T22:02:27.145Z,0.70
2022-11-26T22:07:30.277Z,1.10
2022-11-26T22:12:32.866Z,0.60
2022-11-26T22:17:35.057Z,0.35
2022-11-26T22:22:37.163Z,0.50
2022-11-26T22:27:39.391Z,0.50
2022-11-26T22:32:41.488Z,0.40
2022-11-26T22:37:43.621Z,0.50
2022-11-26T22:42:45.737Z,0.50
2022-11-26T22:47:52.560Z,0.50
2022-11-26T22:52:55.058Z,0.50
2022-11-26T22:57:57.300Z,0.50
2022-11-26T23:02:59.610Z,0.50
2022-11-26T23:08:01.885Z,0.40
2022-11-26T23:13:05.527Z,0.50
2022-11-26T23:18:09.778Z,0.50
2022-11-26T23:23:13.329Z,0.50
2022-11-26T23:28:15.460Z,0.50
2022-11-26T23:33:17.611Z,0.90
2022-11-26T23:38:19.798Z,0.40
2022-11-26T23:43:22.493Z,0.50
2022-11-26T23:48:24.605Z,0.40
2022-11-26T23:53:27.295Z,0.25
2022-11-26T23:58:29.962Z,0.60
